createdAt,value
2018-09-06T00:01:23.514Z,19.00
2018-09-06T00:03:51.715Z,20.30
2018-09-06T00:06:19.843Z,19.67
2018-09-06T00:08:47.920Z,16.02
2018-09-06T00:11:16.010Z,18.37
2018-09-06T00:13:44.106Z,15.78
2018-09-06T00:16:12.170Z,17.77
2018-09-06T00:18:40.275Z,21.20
2018-09-06T00:21:08.343Z,19.40
2018-09-06T00:23:36.737Z,15.88
2018-09-06T00:26:04.870Z,20.80
2018-09-06T00:28:32.997Z,17.57
2018-09-06T00:31:01.076Z,15.98
2018-09-06T00:33:29.158Z,18.05
2018-09-06T00:35:57.238Z,17.90
2018-09-06T00:38:25.311Z,17.07
2018-09-06T00:40:53.390Z,17.50
2018-09-06T00:43:21.458Z,18.67
2018-09-06T00:45:49.538Z,19.50
2018-09-06T00:48:17.975Z,18.85
2018-09-06T00:50:46.061Z,19.40
2018-09-06T00:53:14.162Z,17.87
2018-09-06T00:55:42.238Z,18.73
2018-09-06T00:58:10.309Z,19.47
2018-09-06T01:00:38.379Z,21.53
2018-09-06T01:03:06.438Z,17.43
2018-09-06T01:05:34.534Z,17.77
2018-09-06T01:08:02.633Z,15.32
2018-09-06T01:10:31.630Z,15.07
2018-09-06T01:12:59.738Z,18.20
2018-09-06T01:15:27.830Z,17.47
2018-09-06T01:17:55.898Z,16.47
2018-09-06T01:20:24.038Z,18.97
2018-09-06T01:22:52.117Z,16.10
2018-09-06T01:25:20.208Z,17.40
2018-09-06T01:27:48.286Z,16.83
2018-09-06T01:30:16.391Z,17.97
2018-09-06T01:32:44.492Z,19.07
2018-09-06T01:35:12.574Z,17.93
2018-09-06T01:37:40.650Z,19.52
2018-09-06T01:40:08.752Z,16.43
2018-09-06T01:42:36.822Z,14.77
2018-09-06T01:45:04.960Z,18.70
2018-09-06T01:47:33.182Z,17.60
2018-09-06T01:50:01.246Z,17.85
2018-09-06T01:52:29.369Z,18.10
2018-09-06T01:54:57.470Z,17.37
2018-09-06T01:57:25.654Z,18.13
2018-09-06T01:59:53.710Z,16.73
2018-09-06T02:02:21.779Z,17.13
2018-09-06T02:04:49.850Z,19.63
2018-09-06T02:07:17.952Z,16.27
2018-09-06T02:09:46.018Z,20.50
2018-09-06T02:12:14.175Z,16.90
2018-09-06T02:14:42.282Z,19.25
2018-09-06T02:17:10.359Z,17.47
2018-09-06T02:19:38.470Z,19.07
2018-09-06T02:22:06.571Z,19.17
2018-09-06T02:24:34.671Z,18.37
2018-09-06T02:27:02.778Z,19.03
2018-09-06T02:29:30.922Z,17.60
2018-09-06T02:31:58.995Z,17.87
2018-09-06T02:34:27.095Z,19.73
2018-09-06T02:36:55.222Z,22.63
2018-09-06T02:39:23.304Z,17.27
2018-09-06T02:41:51.390Z,19.97
2018-09-06T02:44:19.484Z,20.67
2018-09-06T02:46:47.576Z,20.70
2018-09-06T02:49:15.647Z,27.25
2018-09-06T02:51:43.740Z,24.63
2018-09-06T02:54:11.819Z,24.50
2018-09-06T02:56:39.927Z,26.00
2018-09-06T02:59:08.008Z,24.27
2018-09-06T03:01:36.110Z,26.47
2018-09-06T03:04:04.210Z,25.97
2018-09-06T03:06:32.282Z,25.27
2018-09-06T03:09:00.354Z,23.73
2018-09-06T03:11:32.695Z,27.17
2018-09-06T03:14:00.769Z,26.80
2018-09-06T03:16:28.887Z,26.87
2018-09-06T03:18:56.950Z,27.67
2018-09-06T03:21:25.065Z,27.17
2018-09-06T03:23:53.156Z,27.03
2018-09-06T03:26:21.227Z,22.87
2018-09-06T03:28:50.427Z,24.33
2018-09-06T03:31:18.510Z,22.67
2018-09-06T03:33:46.889Z,25.40
2018-09-06T03:36:15.257Z,26.90
2018-09-06T03:38:43.640Z,28.70
2018-09-06T03:41:11.713Z,21.67
2018-09-06T03:43:39.816Z,22.43
2018-09-06T03:46:08.492Z,22.73
2018-09-06T03:48:36.750Z,23.70
2018-09-06T03:51:05.162Z,23.07
2018-09-06T03:53:33.342Z,22.27
2018-09-06T03:56:01.558Z,23.80
2018-09-06T03:58:29.658Z,22.27
2018-09-06T04:00:57.772Z,24.37
2018-09-06T04:03:25.848Z,20.00
2018-09-06T04:05:53.915Z,19.33
2018-09-06T04:08:21.991Z,18.10
2018-09-06T04:10:50.112Z,23.27
2018-09-06T04:13:18.175Z,21.43
2018-09-06T04:15:46.274Z,19.20
2018-09-06T04:18:14.342Z,19.97
2018-09-06T04:20:42.418Z,19.33
2018-09-06T04:23:10.842Z,21.30
2018-09-06T04:25:38.944Z,20.87
2018-09-06T04:28:07.020Z,19.97
2018-09-06T04:30:35.127Z,19.80
2018-09-06T04:33:03.193Z,19.83
2018-09-06T04:35:32.067Z,21.40
2018-09-06T04:38:00.070Z,27.42
2018-09-06T04:40:28.192Z,25.72
2018-09-06T04:42:56.252Z,21.97
2018-09-06T04:45:24.336Z,20.27
2018-09-06T04:47:52.399Z,21.83
2018-09-06T04:50:20.777Z,21.27
2018-09-06T04:52:48.848Z,21.23
2018-09-06T04:55:17.006Z,23.50
2018-09-06T04:57:45.060Z,19.43
2018-09-06T05:00:13.140Z,20.57
2018-09-06T05:02:41.342Z,22.53
2018-09-06T05:05:09.538Z,24.53
2018-09-06T05:07:37.623Z,22.00
2018-09-06T05:10:06.310Z,22.03
2018-09-06T05:12:34.421Z,24.27
2018-09-06T05:15:02.470Z,29.32
2018-09-06T05:17:30.613Z,28.62
2018-09-06T05:19:58.686Z,22.53
2018-09-06T05:22:26.759Z,21.17
2018-09-06T05:24:54.854Z,29.90
2018-09-06T05:27:22.924Z,24.23
2018-09-06T05:29:51.017Z,22.97
2018-09-06T05:32:19.090Z,23.30
2018-09-06T05:34:47.182Z,23.87
2018-09-06T05:37:15.274Z,26.13
2018-09-06T05:39:43.407Z,24.07
2018-09-06T05:42:11.468Z,24.27
2018-09-06T05:44:39.563Z,26.45
2018-09-06T05:47:07.687Z,27.37
2018-09-06T05:49:35.815Z,26.37
2018-09-06T05:52:03.880Z,27.07
2018-09-06T05:54:31.952Z,24.83
2018-09-06T05:57:00.155Z,23.33
2018-09-06T05:59:28.234Z,23.17
2018-09-06T06:01:56.330Z,24.07
2018-09-06T06:04:24.403Z,22.60
2018-09-06T06:06:52.494Z,23.57
2018-09-06T06:09:20.563Z,26.37
2018-09-06T06:11:48.844Z,24.07
2018-09-06T06:14:16.886Z,24.77
2018-09-06T06:16:44.959Z,22.10
2018-09-06T06:19:13.020Z,25.53
2018-09-06T06:21:41.094Z,22.37
2018-09-06T06:24:09.170Z,27.40
2018-09-06T06:26:37.250Z,27.07
2018-09-06T06:29:05.434Z,22.02
2018-09-06T06:31:33.532Z,31.33
2018-09-06T06:34:01.644Z,20.90
2018-09-06T06:36:29.682Z,25.07
2018-09-06T06:38:57.764Z,22.20
2018-09-06T06:41:25.875Z,20.20
2018-09-06T06:43:53.943Z,24.27
2018-09-06T06:46:22.031Z,19.93
2018-09-06T06:48:50.107Z,27.33
2018-09-06T06:51:18.192Z,25.43
2018-09-06T06:53:46.278Z,22.13
2018-09-06T06:56:14.338Z,23.00
2018-09-06T06:58:42.471Z,26.48
2018-09-06T07:01:10.501Z,26.40
2018-09-06T07:03:38.578Z,26.40
2018-09-06T07:06:06.976Z,19.30
2018-09-06T07:08:35.072Z,22.10
2018-09-06T07:11:03.143Z,26.53
2018-09-06T07:13:31.240Z,24.40
2018-09-06T07:15:59.319Z,23.10
2018-09-06T07:18:27.548Z,24.40
2018-09-06T07:20:55.550Z,20.63
2018-09-06T07:23:23.649Z,21.80
2018-09-06T07:25:51.772Z,22.17
2018-09-06T07:28:19.883Z,21.52
2018-09-06T07:30:47.991Z,21.90
2018-09-06T07:33:16.068Z,21.17
2018-09-06T07:35:44.155Z,20.02
2018-09-06T07:38:12.232Z,22.67
2018-09-06T07:40:40.331Z,19.42
2018-09-06T07:43:08.534Z,19.77
2018-09-06T07:45:36.641Z,22.20
2018-09-06T07:48:04.711Z,19.35
2018-09-06T07:50:32.802Z,20.52
2018-09-06T07:53:00.875Z,21.42
2018-09-06T07:55:29.030Z,21.05
2018-09-06T07:57:57.154Z,22.95
2018-09-06T08:00:25.247Z,19.45
2018-09-06T08:02:53.386Z,22.10
2018-09-06T08:05:21.589Z,21.05
2018-09-06T08:07:49.666Z,21.15
2018-09-06T08:10:17.763Z,23.05
2018-09-06T08:12:45.893Z,19.98
2018-09-06T08:15:14.027Z,20.82
2018-09-06T08:17:42.154Z,20.32
2018-09-06T08:20:10.223Z,20.72
2018-09-06T08:22:38.294Z,18.92
2018-09-06T08:25:06.611Z,18.45
2018-09-06T08:27:34.734Z,19.42
2018-09-06T08:30:02.817Z,25.27
2018-09-06T08:32:30.888Z,21.50
2018-09-06T08:34:58.973Z,18.32
2018-09-06T08:37:27.238Z,20.50
2018-09-06T08:39:55.308Z,20.12
2018-09-06T08:42:23.395Z,18.30
2018-09-06T08:44:51.487Z,18.32
2018-09-06T08:47:19.601Z,22.95
2018-09-06T08:49:47.735Z,17.45
2018-09-06T08:52:15.880Z,21.48
2018-09-06T08:54:43.910Z,18.82
2018-09-06T08:57:11.999Z,19.17
2018-09-06T08:59:40.104Z,22.32
2018-09-06T09:02:12.790Z,23.15
2018-09-06T09:04:41.018Z,19.77
2018-09-06T09:07:09.113Z,20.15
2018-09-06T09:09:37.189Z,20.17
2018-09-06T09:12:05.286Z,19.98
2018-09-06T09:14:33.548Z,22.80
2018-09-06T09:17:01.643Z,22.35
2018-09-06T09:19:29.752Z,22.20
2018-09-06T09:21:57.891Z,22.20
2018-09-06T09:24:25.954Z,21.05
2018-09-06T09:26:54.214Z,19.70
2018-09-06T09:29:22.319Z,19.30
2018-09-06T09:31:50.434Z,23.50
2018-09-06T09:34:18.510Z,22.62
2018-09-06T09:36:46.675Z,15.28
2018-09-06T09:39:14.780Z,20.97
2018-09-06T09:41:42.945Z,19.10
2018-09-06T09:44:11.043Z,19.20
2018-09-06T09:49:06.485Z,21.40
2018-09-06T09:51:34.768Z,27.77
2018-09-06T09:54:02.825Z,19.70
2018-09-06T09:56:30.934Z,25.70
2018-09-06T09:58:59.019Z,22.20
2018-09-06T10:01:32.477Z,21.33
2018-09-06T10:04:05.990Z,22.73
2018-09-06T10:06:39.655Z,21.55
2018-09-06T10:09:13.196Z,20.40
2018-09-06T10:11:41.275Z,19.15
2018-09-06T10:14:09.455Z,18.07
2018-09-06T10:16:37.522Z,21.85
2018-09-06T10:19:05.626Z,26.27
2018-09-06T10:21:33.735Z,22.05
2018-09-06T10:24:01.861Z,18.65
2018-09-06T10:26:29.962Z,26.23
2018-09-06T10:28:58.049Z,21.05
2018-09-06T10:31:26.154Z,26.25
2018-09-06T10:33:54.225Z,23.98
2018-09-06T10:36:22.310Z,21.68
2018-09-06T10:38:50.391Z,23.38
2018-09-06T10:41:18.461Z,24.50
2018-09-06T10:43:46.527Z,18.87
2018-09-06T10:46:14.606Z,19.25
2018-09-06T10:48:42.689Z,17.20
2018-09-06T10:51:10.783Z,18.70
2018-09-06T10:53:38.852Z,20.88
2018-09-06T10:56:06.944Z,19.80
2018-09-06T10:58:35.220Z,19.30
2018-09-06T11:01:08.664Z,18.05
2018-09-06T11:03:36.745Z,15.83
2018-09-06T11:06:04.811Z,16.55
2018-09-06T11:08:33.031Z,14.75
2018-09-06T11:11:01.302Z,15.70
2018-09-06T11:13:29.430Z,17.02
2018-09-06T11:15:57.512Z,16.00
2018-09-06T11:18:25.589Z,16.45
2018-09-06T11:20:53.660Z,14.68
2018-09-06T11:23:21.835Z,15.98
2018-09-06T11:25:49.902Z,14.87
2018-09-06T11:28:17.998Z,16.97
2018-09-06T11:30:46.084Z,16.40
2018-09-06T11:33:14.177Z,17.67
2018-09-06T11:35:42.224Z,12.70
2018-09-06T11:38:10.306Z,14.63
2018-09-06T11:40:38.408Z,15.98
2018-09-06T11:43:06.632Z,14.40
2018-09-06T11:45:34.765Z,15.28
2018-09-06T11:48:03.053Z,16.17
2018-09-06T11:50:31.121Z,15.13
2018-09-06T11:52:59.208Z,15.98
2018-09-06T11:55:27.279Z,13.65
2018-09-06T11:57:55.372Z,11.90
2018-09-06T12:00:23.764Z,14.25
2018-09-06T12:02:51.854Z,13.50
2018-09-06T12:05:19.942Z,17.87
2018-09-06T12:07:48.022Z,15.55
2018-09-06T12:10:16.121Z,20.65
2018-09-06T12:12:44.237Z,23.00
2018-09-06T12:15:12.321Z,15.70
2018-09-06T12:17:40.474Z,16.48
2018-09-06T12:20:08.576Z,18.45
2018-09-06T12:22:36.807Z,20.27
2018-09-06T12:25:04.990Z,14.07
2018-09-06T12:27:33.195Z,12.82
2018-09-06T12:30:01.329Z,14.55
2018-09-06T12:32:29.451Z,12.07
2018-09-06T12:34:57.522Z,15.20
2018-09-06T12:37:25.643Z,13.05
2018-09-06T12:39:53.735Z,14.47
2018-09-06T12:42:21.804Z,16.40
2018-09-06T12:44:49.877Z,14.03
2018-09-06T12:47:17.945Z,16.48
2018-09-06T12:49:46.035Z,14.25
2018-09-06T12:52:14.099Z,18.15
2018-09-06T12:54:42.203Z,17.85
2018-09-06T12:57:10.289Z,15.88
2018-09-06T12:59:38.359Z,14.83
2018-09-06T13:02:06.494Z,18.85
2018-09-06T13:04:34.586Z,19.05
2018-09-06T13:07:02.679Z,17.52
2018-09-06T13:09:30.795Z,17.12
2018-09-06T13:11:58.878Z,16.23
2018-09-06T13:14:27.247Z,19.00
2018-09-06T13:16:55.327Z,16.57
2018-09-06T13:19:23.422Z,15.90
2018-09-06T13:21:51.568Z,12.53
2018-09-06T13:24:19.635Z,12.68
2018-09-06T13:26:48.136Z,12.65
2018-09-06T13:29:16.221Z,12.40
2018-09-06T13:31:44.315Z,13.53
2018-09-06T13:34:12.456Z,12.47
2018-09-06T13:36:40.563Z,9.20
2018-09-06T13:39:10.123Z,9.30
2018-09-06T13:41:38.190Z,8.10
2018-09-06T13:44:06.314Z,8.18
2018-09-06T13:46:34.400Z,9.55
2018-09-06T13:49:02.476Z,10.48
2018-09-06T13:51:30.645Z,12.63
2018-09-06T13:53:58.715Z,9.60
2018-09-06T13:56:26.796Z,8.88
2018-09-06T13:58:54.862Z,8.20
2018-09-06T14:01:22.931Z,8.33
2018-09-06T14:03:51.179Z,12.70
2018-09-06T14:06:19.278Z,9.35
2018-09-06T14:08:47.458Z,8.90
2018-09-06T14:11:15.507Z,9.03
2018-09-06T14:13:43.599Z,7.75
2018-09-06T14:16:11.754Z,8.25
2018-09-06T14:18:39.825Z,9.93
2018-09-06T14:21:07.902Z,12.45
2018-09-06T14:23:35.970Z,11.25
2018-09-06T14:26:04.057Z,7.05
2018-09-06T14:28:32.154Z,7.05
2018-09-06T14:31:00.247Z,9.33
2018-09-06T14:33:28.327Z,7.40
2018-09-06T14:35:56.404Z,6.97
2018-09-06T14:38:24.477Z,6.80
2018-09-06T14:40:52.547Z,9.88
2018-09-06T14:43:20.607Z,7.72
2018-09-06T14:45:48.691Z,8.83
2018-09-06T14:48:16.762Z,7.50
2018-09-06T14:50:44.972Z,8.33
2018-09-06T14:53:12.982Z,7.33
2018-09-06T14:55:41.140Z,7.70
2018-09-06T14:58:09.207Z,11.83
2018-09-06T15:00:37.331Z,4.80
2018-09-06T15:03:05.413Z,5.07
2018-09-06T15:05:33.616Z,5.80
2018-09-06T15:08:01.752Z,4.75
2018-09-06T15:10:30.024Z,4.10
2018-09-06T15:12:58.081Z,6.30
2018-09-06T15:15:26.199Z,5.90
2018-09-06T15:17:54.286Z,4.83
2018-09-06T15:20:22.347Z,5.10
2018-09-06T15:22:50.424Z,6.03
2018-09-06T15:25:18.527Z,6.17
2018-09-06T15:27:46.658Z,6.93
2018-09-06T15:30:14.746Z,9.87
2018-09-06T15:32:43.043Z,7.20
2018-09-06T15:35:11.144Z,8.05
2018-09-06T15:37:39.259Z,8.00
2018-09-06T15:40:07.357Z,7.37
2018-09-06T15:42:35.435Z,9.03
2018-09-06T15:45:03.710Z,8.97
2018-09-06T15:47:31.785Z,5.60
2018-09-06T15:50:00.203Z,6.30
2018-09-06T15:52:28.194Z,6.77
2018-09-06T15:54:56.249Z,9.23
2018-09-06T15:57:24.322Z,5.92
2018-09-06T15:59:52.423Z,4.87
2018-09-06T16:02:20.493Z,4.47
2018-09-06T16:04:48.570Z,3.80
2018-09-06T16:07:16.640Z,3.27
2018-09-06T16:09:44.731Z,2.90
2018-09-06T16:12:12.770Z,2.33
2018-09-06T16:14:40.854Z,2.47
2018-09-06T16:17:08.999Z,3.30
2018-09-06T16:19:37.050Z,3.35
2018-09-06T16:22:05.178Z,2.10
2018-09-06T16:24:33.317Z,2.37
2018-09-06T16:27:01.353Z,3.43
2018-09-06T16:29:29.425Z,2.30
2018-09-06T16:31:57.482Z,3.17
2018-09-06T16:34:25.554Z,2.22
2018-09-06T16:36:53.713Z,2.35
2018-09-06T16:39:21.787Z,1.62
2018-09-06T16:41:49.852Z,1.65
2018-09-06T16:44:17.919Z,2.65
2018-09-06T16:46:45.991Z,2.80
2018-09-06T16:49:14.076Z,3.35
2018-09-06T16:51:42.155Z,3.58
2018-09-06T16:54:10.216Z,3.60
2018-09-06T16:56:38.296Z,3.80
2018-09-06T16:59:06.395Z,2.20
2018-09-06T17:01:34.487Z,1.87
2018-09-06T17:04:03.363Z,1.82
2018-09-06T17:06:31.435Z,2.30
2018-09-06T17:08:59.619Z,2.50
2018-09-06T17:11:27.696Z,3.00
2018-09-06T17:13:55.808Z,3.30
2018-09-06T17:16:23.988Z,2.20
2018-09-06T17:18:52.123Z,2.65
2018-09-06T17:21:20.196Z,2.43
2018-09-06T17:23:48.270Z,1.93
2018-09-06T17:26:16.418Z,2.00
2018-09-06T17:28:44.422Z,4.47
2018-09-06T17:31:12.531Z,4.12
2018-09-06T17:33:40.602Z,3.23
2018-09-06T17:36:08.688Z,2.30
2018-09-06T17:38:36.845Z,2.83
2018-09-06T17:41:05.017Z,2.37
2018-09-06T17:43:33.095Z,2.57
2018-09-06T17:46:01.306Z,3.40
2018-09-06T17:48:29.372Z,3.08
2018-09-06T17:50:57.493Z,4.67
2018-09-06T17:53:25.638Z,3.70
2018-09-06T17:55:53.699Z,4.77
2018-09-06T17:58:21.780Z,6.63
2018-09-06T18:01:07.675Z,3.10
2018-09-06T18:03:35.743Z,3.93
2018-09-06T18:06:03.802Z,3.45
2018-09-06T18:08:31.863Z,2.80
2018-09-06T18:10:59.985Z,4.30
2018-09-06T18:13:28.025Z,4.77
2018-09-06T18:15:56.094Z,2.30
2018-09-06T18:18:24.163Z,3.77
2018-09-06T18:20:52.227Z,4.30
2018-09-06T18:23:20.307Z,3.97
2018-09-06T18:25:48.418Z,4.83
2018-09-06T18:28:16.479Z,2.67
2018-09-06T18:30:44.590Z,5.27
2018-09-06T18:33:12.748Z,4.23
2018-09-06T18:35:40.823Z,4.07
2018-09-06T18:38:08.886Z,4.33
2018-09-06T18:40:36.990Z,3.63
2018-09-06T18:43:05.216Z,6.00
2018-09-06T18:45:33.267Z,5.37
2018-09-06T18:48:01.859Z,5.17
2018-09-06T18:50:29.918Z,3.83
2018-09-06T18:52:58.025Z,5.47
2018-09-06T18:55:26.128Z,6.37
2018-09-06T18:57:54.222Z,7.50
2018-09-06T19:00:22.307Z,4.17
2018-09-06T19:02:50.366Z,5.37
2018-09-06T19:05:18.438Z,5.13
2018-09-06T19:07:46.586Z,4.93
2018-09-06T19:10:14.638Z,6.63
2018-09-06T19:12:42.704Z,5.53
2018-09-06T19:15:10.791Z,7.70
2018-09-06T19:17:38.858Z,3.63
2018-09-06T19:20:06.943Z,4.60
2018-09-06T19:22:35.043Z,7.27
2018-09-06T19:25:03.174Z,7.57
2018-09-06T19:27:31.259Z,5.80
2018-09-06T19:29:59.361Z,10.07
2018-09-06T19:32:27.706Z,5.20
2018-09-06T19:34:55.811Z,5.93
2018-09-06T19:37:23.886Z,5.80
2018-09-06T19:39:52.050Z,5.10
2018-09-06T19:42:20.178Z,6.40
2018-09-06T19:44:48.237Z,4.80
2018-09-06T19:47:16.413Z,4.10
2018-09-06T19:49:44.473Z,5.70
2018-09-06T19:52:12.554Z,6.13
2018-09-06T19:54:40.644Z,7.43
2018-09-06T19:57:09.247Z,6.10
2018-09-06T19:59:37.390Z,9.57
2018-09-06T20:02:05.609Z,4.53
2018-09-06T20:04:33.594Z,7.47
2018-09-06T20:07:01.719Z,9.53
2018-09-06T20:09:29.766Z,5.70
2018-09-06T20:11:57.844Z,5.57
2018-09-06T20:14:25.928Z,9.50
2018-09-06T20:16:54.081Z,6.10
2018-09-06T20:19:22.182Z,6.40
2018-09-06T20:21:50.235Z,6.47
2018-09-06T20:24:18.531Z,8.10
2018-09-06T20:26:46.408Z,6.17
2018-09-06T20:29:14.469Z,6.23
2018-09-06T20:31:42.590Z,7.07
2018-09-06T20:34:10.643Z,5.33
2018-09-06T20:36:38.723Z,6.87
2018-09-06T20:39:07.608Z,6.10
2018-09-06T20:41:35.673Z,11.47
2018-09-06T20:44:03.770Z,8.10
2018-09-06T20:46:31.866Z,7.80
2018-09-06T20:49:00.055Z,6.63
2018-09-06T20:51:28.271Z,12.17
2018-09-06T20:53:56.357Z,4.47
2018-09-06T20:56:24.439Z,7.97
2018-09-06T20:58:52.498Z,7.23
2018-09-06T21:01:20.583Z,5.47
2018-09-06T21:03:48.646Z,6.53
2018-09-06T21:06:16.793Z,7.00
2018-09-06T21:08:44.856Z,8.87
2018-09-06T21:11:12.927Z,7.20
2018-09-06T21:13:41.007Z,10.60
2018-09-06T21:16:09.094Z,7.60
2018-09-06T21:18:37.207Z,8.07
2018-09-06T21:21:05.343Z,6.27
2018-09-06T21:23:33.490Z,8.67
2018-09-06T21:26:01.492Z,6.83
2018-09-06T21:28:29.617Z,9.23
2018-09-06T21:30:57.721Z,6.57
2018-09-06T21:33:25.802Z,8.17
2018-09-06T21:35:53.863Z,9.23
2018-09-06T21:38:21.931Z,7.37
2018-09-06T21:40:50.051Z,6.27
2018-09-06T21:43:18.115Z,9.23
2018-09-06T21:45:46.210Z,11.23
2018-09-06T21:48:14.886Z,11.13
2018-09-06T21:50:42.962Z,10.40
2018-09-06T21:53:11.014Z,9.80
2018-09-06T21:55:39.228Z,8.67
2018-09-06T21:58:07.287Z,7.43
2018-09-06T22:00:35.358Z,8.93
2018-09-06T22:03:09.071Z,7.63
2018-09-06T22:05:37.126Z,9.67
2018-09-06T22:08:05.282Z,12.88
2018-09-06T22:10:33.394Z,9.03
2018-09-06T22:13:01.499Z,8.70
2018-09-06T22:15:29.945Z,8.60
2018-09-06T22:17:58.017Z,9.43
2018-09-06T22:20:26.140Z,7.67
2018-09-06T22:22:54.264Z,9.07
2018-09-06T22:25:22.314Z,10.23
2018-09-06T22:27:50.404Z,8.10
2018-09-06T22:30:18.484Z,7.17
2018-09-06T22:32:46.561Z,8.80
2018-09-06T22:35:14.670Z,9.77
2018-09-06T22:37:42.738Z,10.40
2018-09-06T22:40:10.822Z,6.90
2018-09-06T22:42:38.886Z,10.67
2018-09-06T22:45:06.955Z,9.17
2018-09-06T22:47:35.041Z,9.33
2018-09-06T22:50:03.151Z,9.13
2018-09-06T22:52:31.362Z,9.67
2018-09-06T22:54:59.437Z,13.67
2018-09-06T22:57:27.510Z,15.03
2018-09-06T22:59:55.578Z,11.93
2018-09-06T23:02:26.507Z,7.30
2018-09-06T23:04:54.626Z,11.33
2018-09-06T23:07:22.696Z,9.67
2018-09-06T23:09:50.756Z,9.10
2018-09-06T23:12:18.802Z,7.30
2018-09-06T23:14:46.879Z,7.60
2018-09-06T23:17:14.938Z,6.93
2018-09-06T23:19:43.014Z,8.30
2018-09-06T23:22:11.083Z,7.57
2018-09-06T23:24:39.148Z,11.43
2018-09-06T23:27:07.231Z,9.13
2018-09-06T23:29:35.303Z,11.28
2018-09-06T23:32:03.379Z,12.90
2018-09-06T23:34:35.407Z,10.63
2018-09-06T23:37:03.823Z,9.03
2018-09-06T23:39:31.895Z,7.50
2018-09-06T23:42:00.071Z,8.87
2018-09-06T23:44:28.153Z,7.73
2018-09-06T23:46:56.327Z,8.47
2018-09-06T23:49:24.390Z,10.07
2018-09-06T23:51:52.453Z,11.90
2018-09-06T23:54:20.514Z,12.70
2018-09-06T23:56:48.602Z,8.53
2018-09-06T23:59:16.865Z,8.13
